createdAt,value
2023-04-19T00:02:03.232Z,77.75
2023-04-19T00:04:30.290Z,77.73
2023-04-19T00:06:58.480Z,78.52
2023-04-19T00:09:25.485Z,78.71
2023-04-19T00:11:53.001Z,78.76
2023-04-19T00:14:20.003Z,77.84
2023-04-19T00:16:47.151Z,77.89
2023-04-19T00:19:14.047Z,78.74
2023-04-19T00:21:41.277Z,78.30
2023-04-19T00:24:08.131Z,79.34
2023-04-19T00:26:34.820Z,79.75
2023-04-19T00:29:01.549Z,80.32
2023-04-19T00:31:28.271Z,79.59
2023-04-19T00:33:55.102Z,81.33
2023-04-19T00:36:21.860Z,81.63
2023-04-19T00:38:48.586Z,81.93
2023-04-19T00:41:16.104Z,82.05
2023-04-19T00:43:42.922Z,82.62
2023-04-19T00:46:10.068Z,82.65
2023-04-19T00:48:36.996Z,82.91
2023-04-19T00:51:04.908Z,83.15
2023-04-19T00:53:31.631Z,84.00
2023-04-19T00:56:02.044Z,83.81
2023-04-19T00:58:31.546Z,84.42
2023-04-19T01:00:58.696Z,84.35
2023-04-19T01:03:27.662Z,84.86
2023-04-19T01:05:55.345Z,85.77
2023-04-19T01:08:22.102Z,85.18
2023-04-19T01:10:48.794Z,85.71
2023-04-19T01:13:15.600Z,86.22
2023-04-19T01:15:42.371Z,85.90
2023-04-19T01:18:09.166Z,85.25
2023-04-19T01:20:36.007Z,85.67
2023-04-19T01:23:02.818Z,86.76
2023-04-19T01:25:29.903Z,86.31
2023-04-19T01:27:56.779Z,86.69
2023-04-19T01:30:23.491Z,87.25
2023-04-19T01:32:50.450Z,87.70
2023-04-19T01:35:17.358Z,88.56
2023-04-19T01:37:44.125Z,89.15
2023-04-19T01:40:11.314Z,89.38
2023-04-19T01:42:38.051Z,90.02
2023-04-19T01:45:05.385Z,89.90
2023-04-19T01:47:32.181Z,90.86
2023-04-19T01:49:58.943Z,91.53
2023-04-19T01:52:25.697Z,91.43
2023-04-19T01:54:52.470Z,91.42
2023-04-19T01:57:19.259Z,91.59
2023-04-19T01:59:46.003Z,91.24
2023-04-19T02:02:12.792Z,91.33
2023-04-19T02:04:39.665Z,90.82
2023-04-19T02:07:06.441Z,90.99
2023-04-19T02:09:36.354Z,90.54
2023-04-19T02:12:04.229Z,90.14
2023-04-19T02:14:31.947Z,89.89
2023-04-19T02:16:58.862Z,89.94
2023-04-19T02:19:25.678Z,89.44
2023-04-19T02:21:53.729Z,89.06
2023-04-19T02:24:20.487Z,88.69
2023-04-19T02:26:47.253Z,88.39
2023-04-19T02:29:14.225Z,88.38
2023-04-19T02:31:41.021Z,87.84
2023-04-19T02:34:07.697Z,88.04
2023-04-19T02:36:34.445Z,87.77
2023-04-19T02:39:01.268Z,87.43
2023-04-19T02:41:27.969Z,86.96
2023-04-19T02:43:54.661Z,87.86
2023-04-19T02:46:21.398Z,87.44
2023-04-19T02:48:48.161Z,87.27
2023-04-19T02:51:16.723Z,86.88
2023-04-19T02:53:43.739Z,86.98
2023-04-19T02:56:10.506Z,87.61
2023-04-19T02:58:37.274Z,86.99
2023-04-19T03:01:04.061Z,86.41
2023-04-19T03:03:31.103Z,87.00
2023-04-19T03:05:58.005Z,86.15
2023-04-19T03:08:24.950Z,86.31
2023-04-19T03:10:51.813Z,85.38
2023-04-19T03:13:18.533Z,85.07
2023-04-19T03:15:45.492Z,84.19
2023-04-19T03:18:12.317Z,84.87
2023-04-19T03:20:39.162Z,83.64
2023-04-19T03:23:06.023Z,83.32
2023-04-19T03:25:33.186Z,84.12
2023-04-19T03:27:59.941Z,82.46
2023-04-19T03:30:26.616Z,83.00
2023-04-19T03:32:53.543Z,83.20
2023-04-19T03:35:21.144Z,85.96
2023-04-19T03:37:47.956Z,83.78
2023-04-19T03:40:14.676Z,84.42
2023-04-19T03:42:41.457Z,85.62
2023-04-19T03:45:08.870Z,86.87
2023-04-19T03:47:36.109Z,86.76
2023-04-19T03:50:03.336Z,87.48
2023-04-19T03:52:30.218Z,87.51
2023-04-19T03:54:56.962Z,88.15
2023-04-19T03:57:23.626Z,88.65
2023-04-19T03:59:50.563Z,89.29
2023-04-19T04:02:17.365Z,88.86
2023-04-19T04:04:44.479Z,89.23
2023-04-19T04:07:11.350Z,89.75
2023-04-19T04:09:38.088Z,90.15
2023-04-19T04:12:04.953Z,89.40
2023-04-19T04:14:31.745Z,89.62
2023-04-19T04:16:58.573Z,89.75
2023-04-19T04:19:25.574Z,89.07
2023-04-19T04:21:52.306Z,88.98
2023-04-19T04:24:20.178Z,89.31
2023-04-19T04:26:47.050Z,88.87
2023-04-19T04:29:14.269Z,88.80
2023-04-19T04:31:41.172Z,88.06
2023-04-19T04:34:09.202Z,87.09
2023-04-19T04:36:37.680Z,87.32
2023-04-19T04:39:06.269Z,87.75
2023-04-19T04:41:33.087Z,87.77
2023-04-19T04:44:12.005Z,87.70
2023-04-19T04:46:39.213Z,87.06
2023-04-19T04:49:06.617Z,86.45
2023-04-19T04:51:34.259Z,86.00
2023-04-19T04:54:01.099Z,86.16
2023-04-19T04:56:27.969Z,86.44
2023-04-19T04:58:54.753Z,85.57
2023-04-19T05:01:22.849Z,85.30
2023-04-19T05:03:50.565Z,84.48
2023-04-19T05:06:17.349Z,84.27
2023-04-19T05:08:45.021Z,83.60
2023-04-19T05:11:11.795Z,83.39
2023-04-19T05:13:38.545Z,83.91
2023-04-19T05:16:05.797Z,82.95
2023-04-19T05:18:32.692Z,80.96
2023-04-19T05:20:59.585Z,79.78
2023-04-19T05:23:26.514Z,79.92
2023-04-19T05:25:53.420Z,79.07
2023-04-19T05:28:20.188Z,78.89
2023-04-19T05:30:46.910Z,78.79
2023-04-19T05:33:13.671Z,78.53
2023-04-19T05:35:40.431Z,78.15
2023-04-19T05:38:07.152Z,78.57
2023-04-19T05:40:35.518Z,76.80
2023-04-19T05:43:02.328Z,76.18
2023-04-19T05:45:29.188Z,74.96
2023-04-19T05:47:56.236Z,74.78
2023-04-19T05:50:23.108Z,74.69
2023-04-19T05:52:49.785Z,74.56
2023-04-19T05:55:18.067Z,72.38
2023-04-19T05:57:44.901Z,71.16
2023-04-19T06:00:12.164Z,69.74
2023-04-19T06:02:39.017Z,67.04
2023-04-19T06:05:09.832Z,64.51
2023-04-19T06:07:43.157Z,64.92
2023-04-19T06:10:14.113Z,61.96
2023-04-19T06:12:40.951Z,60.31
2023-04-19T06:15:08.589Z,57.71
2023-04-19T06:17:35.454Z,50.57
2023-04-19T06:20:02.468Z,51.02
2023-04-19T06:22:30.042Z,44.93
2023-04-19T06:24:56.883Z,42.19
2023-04-19T06:27:23.670Z,42.56
2023-04-19T06:29:51.359Z,43.02
2023-04-19T06:32:18.271Z,44.42
2023-04-19T06:34:44.987Z,45.39
2023-04-19T06:37:11.808Z,44.81
2023-04-19T06:39:38.551Z,46.52
2023-04-19T06:42:05.565Z,47.82
2023-04-19T06:44:32.345Z,47.10
2023-04-19T06:46:59.177Z,45.98
2023-04-19T06:49:26.025Z,46.46
2023-04-19T06:51:53.406Z,46.06
2023-04-19T06:54:20.364Z,47.07
2023-04-19T06:56:49.880Z,46.06
2023-04-19T06:59:19.194Z,46.25
2023-04-19T07:01:47.270Z,46.31
2023-04-19T07:04:14.937Z,45.52
2023-04-19T07:06:42.309Z,44.04
2023-04-19T07:09:09.077Z,46.67
2023-04-19T07:11:36.015Z,46.44
2023-04-19T07:14:02.865Z,45.51
2023-04-19T07:16:29.728Z,46.64
2023-04-19T07:18:57.176Z,46.72
2023-04-19T07:21:26.673Z,46.28
2023-04-19T07:23:53.495Z,47.92
2023-04-19T07:26:20.412Z,49.67
2023-04-19T07:28:47.274Z,47.59
2023-04-19T07:31:18.601Z,48.00
2023-04-19T07:33:45.718Z,49.98
2023-04-19T07:36:12.706Z,49.83
2023-04-19T07:38:40.145Z,49.20
2023-04-19T07:41:06.914Z,48.37
2023-04-19T07:43:33.864Z,46.86
2023-04-19T07:46:01.621Z,48.84
2023-04-19T07:48:28.617Z,47.25
2023-04-19T07:50:55.330Z,48.13
2023-04-19T07:53:22.194Z,47.54
2023-04-19T07:55:48.938Z,47.57
2023-04-19T07:58:15.632Z,46.35
2023-04-19T08:00:42.468Z,47.10
2023-04-19T08:03:09.445Z,46.11
2023-04-19T08:05:36.423Z,46.79
2023-04-19T08:08:03.453Z,47.81
2023-04-19T08:10:30.712Z,47.53
2023-04-19T08:13:05.803Z,46.26
2023-04-19T08:18:07.180Z,41.41
2023-04-19T08:20:34.068Z,41.53
2023-04-19T08:23:10.563Z,43.55
2023-04-19T08:25:45.288Z,45.77
2023-04-19T08:28:12.514Z,45.68
2023-04-19T08:30:40.341Z,44.19
2023-04-19T08:33:07.249Z,43.33
2023-04-19T08:35:36.176Z,40.95
2023-04-19T08:38:04.806Z,42.10
2023-04-19T08:40:31.742Z,41.23
2023-04-19T08:42:59.092Z,40.59
2023-04-19T08:45:30.119Z,39.14
2023-04-19T08:48:01.395Z,41.36
2023-04-19T08:53:16.418Z,39.46
2023-04-19T08:58:30.718Z,38.40
2023-04-19T09:01:08.354Z,38.38
2023-04-19T09:03:56.059Z,36.30
2023-04-19T09:06:27.981Z,36.51
2023-04-19T09:11:58.172Z,34.00
2023-04-19T09:14:26.630Z,33.26
2023-04-19T09:16:53.426Z,33.75
2023-04-19T09:19:24.922Z,33.95
2023-04-19T09:21:54.544Z,32.53
2023-04-19T09:25:13.879Z,32.19
2023-04-19T09:27:33.903Z,31.32
2023-04-19T09:30:02.092Z,30.45
2023-04-19T09:32:44.463Z,31.48
2023-04-19T09:35:11.288Z,30.67
2023-04-19T09:40:28.041Z,30.33
2023-04-19T09:43:08.872Z,30.37
2023-04-19T09:45:46.452Z,29.85
2023-04-19T09:48:13.557Z,28.63
2023-04-19T09:51:00.246Z,28.77
2023-04-19T09:53:34.194Z,27.37
2023-04-19T09:56:03.103Z,27.81
2023-04-19T10:01:13.321Z,27.37
2023-04-19T10:03:45.771Z,27.34
2023-04-19T10:08:51.200Z,27.58
2023-04-19T10:11:21.891Z,26.94
2023-04-19T10:13:53.091Z,26.91
2023-04-19T10:16:20.828Z,27.16
2023-04-19T10:18:50.624Z,27.91
2023-04-19T10:21:19.120Z,25.62
2023-04-19T10:23:46.472Z,24.77
2023-04-19T10:26:13.236Z,26.10
2023-04-19T10:28:42.064Z,26.65
2023-04-19T10:31:12.893Z,27.19
2023-04-19T10:33:40.736Z,26.63
2023-04-19T10:36:14.178Z,26.23
2023-04-19T10:38:55.678Z,28.10
2023-04-19T10:41:23.016Z,27.68
2023-04-19T10:43:56.072Z,27.42
2023-04-19T10:46:23.154Z,27.51
2023-04-19T10:49:00.416Z,28.23
2023-04-19T10:51:39.084Z,28.25
2023-04-19T10:54:05.998Z,28.87
2023-04-19T10:56:32.770Z,27.36
2023-04-19T10:59:08.184Z,28.96
2023-04-19T11:01:43.332Z,28.61
2023-04-19T11:04:37.825Z,28.78
2023-04-19T11:07:07.372Z,28.00
2023-04-19T11:09:36.592Z,28.05
2023-04-19T11:12:04.822Z,28.53
2023-04-19T11:14:34.751Z,29.30
2023-04-19T11:17:13.686Z,30.09
2023-04-19T11:19:43.584Z,30.80
2023-04-19T11:22:10.472Z,29.65
2023-04-19T11:24:37.139Z,30.08
2023-04-19T11:27:09.515Z,29.91
2023-04-19T11:29:36.349Z,30.20
2023-04-19T11:32:04.508Z,28.69
2023-04-19T11:34:39.402Z,27.58
2023-04-19T11:37:06.210Z,26.48
2023-04-19T11:39:33.157Z,26.35
2023-04-19T11:42:00.141Z,26.25
2023-04-19T11:44:27.202Z,23.14
2023-04-19T11:47:05.151Z,23.34
2023-04-19T11:49:33.634Z,25.18
2023-04-19T11:52:04.609Z,23.62
2023-04-19T11:54:33.257Z,23.85
2023-04-19T11:57:03.755Z,23.32
2023-04-19T11:59:32.519Z,23.80
2023-04-19T12:02:06.383Z,22.71
2023-04-19T12:04:33.600Z,22.18
2023-04-19T12:07:02.628Z,21.95
2023-04-19T12:09:30.073Z,20.81
2023-04-19T12:11:58.344Z,21.35
2023-04-19T12:14:26.726Z,21.79
2023-04-19T12:17:05.742Z,22.19
2023-04-19T12:19:37.766Z,21.23
2023-04-19T12:22:09.149Z,22.60
2023-04-19T12:24:35.921Z,20.49
2023-04-19T12:27:03.244Z,20.72
2023-04-19T12:29:30.981Z,22.03
2023-04-19T12:31:57.794Z,20.79
2023-04-19T12:34:24.489Z,20.22
2023-04-19T12:36:51.391Z,20.25
2023-04-19T12:39:18.268Z,20.96
2023-04-19T12:41:45.823Z,19.95
2023-04-19T12:44:12.638Z,20.99
2023-04-19T12:46:39.784Z,19.70
2023-04-19T12:49:06.758Z,20.06
2023-04-19T12:51:33.718Z,20.15
2023-04-19T12:54:00.884Z,20.02
2023-04-19T12:56:27.667Z,19.83
2023-04-19T12:58:54.414Z,19.99
2023-04-19T13:01:21.271Z,20.08
2023-04-19T13:03:48.252Z,20.19
2023-04-19T13:06:16.910Z,20.44
2023-04-19T13:08:46.642Z,20.65
2023-04-19T13:11:16.090Z,20.99
2023-04-19T13:13:42.982Z,20.60
2023-04-19T13:16:09.901Z,20.04
2023-04-19T13:18:36.619Z,19.74
2023-04-19T13:21:03.995Z,20.12
2023-04-19T13:23:31.857Z,19.61
2023-04-19T13:25:58.758Z,19.77
2023-04-19T13:28:25.468Z,20.73
2023-04-19T13:30:52.394Z,20.94
2023-04-19T13:33:19.557Z,19.25
2023-04-19T13:35:46.753Z,20.86
2023-04-19T13:38:13.788Z,21.08
2023-04-19T13:40:40.707Z,20.63
2023-04-19T13:43:07.589Z,20.12
2023-04-19T13:45:34.905Z,22.30
2023-04-19T13:48:01.779Z,22.21
2023-04-19T13:50:29.778Z,20.88
2023-04-19T13:52:57.469Z,21.40
2023-04-19T13:55:24.558Z,21.28
2023-04-19T13:57:51.376Z,21.40
2023-04-19T14:00:18.977Z,20.73
2023-04-19T14:02:46.066Z,21.15
2023-04-19T14:05:13.045Z,22.24
2023-04-19T14:07:40.740Z,22.59
2023-04-19T14:10:09.496Z,23.79
2023-04-19T14:12:36.377Z,23.50
2023-04-19T14:15:04.240Z,22.75
2023-04-19T14:17:31.075Z,23.88
2023-04-19T14:19:57.908Z,23.69
2023-04-19T14:22:24.665Z,24.14
2023-04-19T14:24:51.663Z,23.41
2023-04-19T14:27:19.263Z,23.76
2023-04-19T14:29:46.104Z,25.07
2023-04-19T14:32:24.852Z,24.04
2023-04-19T14:34:55.142Z,23.67
2023-04-19T14:37:23.371Z,24.17
2023-04-19T14:39:50.371Z,24.91
2023-04-19T14:42:17.145Z,24.81
2023-04-19T14:44:45.247Z,24.82
2023-04-19T14:47:12.385Z,24.78
2023-04-19T14:49:39.964Z,25.27
2023-04-19T14:52:06.792Z,25.65
2023-04-19T14:54:33.597Z,26.10
2023-04-19T14:57:01.342Z,26.01
2023-04-19T14:59:29.768Z,25.76
2023-04-19T15:01:56.919Z,25.67
2023-04-19T15:04:24.118Z,25.08
2023-04-19T15:06:51.116Z,25.53
2023-04-19T15:09:18.546Z,25.81
2023-04-19T15:11:45.741Z,26.02
2023-04-19T15:14:12.707Z,25.65
2023-04-19T15:16:39.650Z,26.29
2023-04-19T15:19:07.489Z,27.25
2023-04-19T15:21:34.779Z,27.55
2023-04-19T15:24:01.730Z,27.82
2023-04-19T15:26:28.764Z,28.26
2023-04-19T15:28:56.313Z,29.06
2023-04-19T15:31:25.511Z,29.03
2023-04-19T15:33:53.428Z,29.82
2023-04-19T15:36:20.175Z,30.21
2023-04-19T15:38:47.020Z,29.96
2023-04-19T15:41:13.879Z,31.06
2023-04-19T15:43:40.686Z,30.82
2023-04-19T15:46:12.036Z,31.93
2023-04-19T15:48:42.725Z,31.46
2023-04-19T15:51:11.451Z,31.94
2023-04-19T15:53:38.953Z,31.73
2023-04-19T15:56:06.161Z,32.33
2023-04-19T15:58:33.108Z,32.09
2023-04-19T16:00:59.858Z,31.94
2023-04-19T16:03:26.823Z,32.30
2023-04-19T16:05:55.461Z,33.09
2023-04-19T16:08:22.626Z,35.18
2023-04-19T16:10:49.899Z,34.54
2023-04-19T16:13:16.906Z,33.64
2023-04-19T16:15:44.716Z,34.04
2023-04-19T16:18:13.119Z,33.85
2023-04-19T16:20:41.746Z,34.44
2023-04-19T16:23:09.012Z,33.83
2023-04-19T16:25:36.043Z,34.13
2023-04-19T16:28:03.018Z,36.14
2023-04-19T16:30:29.856Z,36.08
2023-04-19T16:32:57.606Z,36.34
2023-04-19T16:35:25.725Z,36.23
2023-04-19T16:37:55.135Z,37.33
2023-04-19T16:40:23.626Z,35.82
2023-04-19T16:42:50.399Z,36.38
2023-04-19T16:45:19.944Z,36.07
2023-04-19T16:47:46.974Z,36.05
2023-04-19T16:50:14.405Z,36.42
2023-04-19T16:52:41.411Z,35.40
2023-04-19T16:55:08.737Z,36.05
2023-04-19T16:57:36.601Z,35.84
2023-04-19T17:00:05.776Z,35.52
2023-04-19T17:02:33.633Z,35.67
2023-04-19T17:05:01.235Z,35.69
2023-04-19T17:07:28.549Z,36.05
2023-04-19T17:09:55.850Z,36.26
2023-04-19T17:12:23.116Z,36.35
2023-04-19T17:14:50.305Z,36.52
2023-04-19T17:17:20.070Z,36.53
2023-04-19T17:19:47.118Z,36.88
2023-04-19T17:22:17.052Z,36.62
2023-04-19T17:24:43.794Z,36.47
2023-04-19T17:27:11.002Z,36.24
2023-04-19T17:29:37.961Z,35.65
2023-04-19T17:32:06.123Z,35.45
2023-04-19T17:34:35.400Z,35.15
2023-04-19T17:37:03.900Z,35.65
2023-04-19T17:39:30.732Z,35.25
2023-04-19T17:41:57.923Z,33.79
2023-04-19T17:44:24.949Z,34.30
2023-04-19T17:46:51.858Z,34.66
2023-04-19T17:49:20.236Z,34.92
2023-04-19T17:51:47.592Z,35.95
2023-04-19T17:54:15.327Z,35.22
2023-04-19T17:56:42.195Z,35.00
2023-04-19T17:59:09.013Z,34.77
2023-04-19T18:01:36.081Z,35.15
2023-04-19T18:04:03.535Z,34.91
2023-04-19T18:06:31.691Z,35.05
2023-04-19T18:08:58.974Z,35.51
2023-04-19T18:11:28.333Z,36.06
2023-04-19T18:13:55.869Z,36.19
2023-04-19T18:16:23.036Z,38.04
2023-04-19T18:18:50.338Z,38.58
2023-04-19T18:21:18.498Z,39.33
2023-04-19T18:23:45.699Z,42.36
2023-04-19T18:26:12.527Z,54.44
2023-04-19T18:28:41.092Z,62.53
2023-04-19T18:31:09.664Z,68.47
2023-04-19T18:33:36.589Z,72.84
2023-04-19T18:36:04.336Z,77.28
2023-04-19T18:38:31.405Z,77.98
2023-04-19T18:40:59.267Z,76.35
2023-04-19T18:43:28.155Z,74.27
2023-04-19T18:45:56.194Z,74.00
2023-04-19T18:48:28.198Z,71.02
2023-04-19T18:50:57.329Z,70.09
2023-04-19T18:53:27.647Z,68.94
2023-04-19T18:55:58.200Z,69.47
2023-04-19T18:58:26.758Z,73.05
2023-04-19T19:00:54.771Z,73.57
2023-04-19T19:03:52.676Z,74.28
2023-04-19T19:06:10.198Z,78.99
2023-04-19T19:08:37.378Z,78.26
2023-04-19T19:13:34.239Z,70.87
2023-04-19T19:16:01.095Z,63.38
2023-04-19T19:18:29.567Z,64.95
2023-04-19T19:21:03.100Z,63.24
2023-04-19T19:23:35.902Z,64.15
2023-04-19T19:26:06.419Z,71.71
2023-04-19T19:28:33.202Z,73.40
2023-04-19T19:31:00.018Z,74.51
2023-04-19T19:33:28.632Z,72.73
2023-04-19T19:35:55.848Z,72.19
2023-04-19T19:38:22.611Z,70.08
2023-04-19T19:43:19.168Z,63.73
2023-04-19T19:45:45.912Z,63.18
2023-04-19T19:48:12.742Z,62.29
2023-04-19T19:51:07.388Z,62.62
2023-04-19T19:53:26.274Z,65.33
2023-04-19T19:55:53.111Z,63.24
2023-04-19T19:58:42.583Z,64.31
2023-04-19T20:01:07.297Z,61.62
2023-04-19T20:03:37.284Z,58.06
2023-04-19T20:06:35.499Z,55.50
2023-04-19T20:08:56.164Z,55.59
2023-04-19T20:11:23.513Z,53.52
2023-04-19T20:13:50.789Z,52.52
2023-04-19T20:16:20.942Z,52.37
2023-04-19T20:18:49.238Z,52.24
2023-04-19T20:21:17.917Z,50.67
2023-04-19T20:23:44.706Z,50.92
2023-04-19T20:26:11.432Z,51.44
2023-04-19T20:28:38.305Z,50.85
2023-04-19T20:31:06.308Z,51.56
2023-04-19T20:33:33.090Z,51.91
2023-04-19T20:36:00.581Z,50.99
2023-04-19T20:38:27.364Z,52.17
2023-04-19T20:40:54.054Z,52.24
2023-04-19T20:43:20.966Z,51.69
2023-04-19T20:45:47.944Z,52.30
2023-04-19T20:48:14.643Z,52.59
2023-04-19T20:50:41.996Z,52.33
2023-04-19T20:53:08.791Z,51.17
2023-04-19T20:55:35.713Z,51.84
2023-04-19T20:58:03.393Z,52.65
2023-04-19T21:00:30.235Z,51.52
2023-04-19T21:02:57.044Z,51.93
2023-04-19T21:05:23.924Z,51.93
2023-04-19T21:07:50.708Z,51.98
2023-04-19T21:10:17.572Z,52.72
2023-04-19T21:12:44.761Z,51.46
2023-04-19T21:15:12.207Z,51.62
2023-04-19T21:17:39.466Z,52.13
2023-04-19T21:20:12.450Z,52.40
2023-04-19T21:22:42.933Z,51.88
2023-04-19T21:25:12.597Z,52.90
2023-04-19T21:27:40.617Z,52.68
2023-04-19T21:30:08.556Z,52.73
2023-04-19T21:32:35.431Z,53.16
2023-04-19T21:35:02.383Z,52.30
2023-04-19T21:37:29.095Z,52.42
2023-04-19T21:39:56.031Z,53.73
2023-04-19T21:42:22.800Z,52.64
2023-04-19T21:44:49.562Z,52.91
2023-04-19T21:47:16.347Z,53.25
2023-04-19T21:49:43.201Z,53.57
2023-04-19T21:52:09.974Z,54.96
2023-04-19T21:54:36.639Z,54.14
2023-04-19T21:57:03.414Z,54.71
2023-04-19T21:59:30.952Z,55.39
2023-04-19T22:01:58.758Z,54.99
2023-04-19T22:04:26.194Z,55.81
2023-04-19T22:06:53.896Z,55.88
2023-04-19T22:09:20.736Z,55.90
2023-04-19T22:11:47.486Z,54.88
2023-04-19T22:14:14.311Z,55.63
2023-04-19T22:16:42.230Z,55.17
2023-04-19T22:19:09.075Z,55.97
2023-04-19T22:21:36.250Z,55.96
2023-04-19T22:24:03.673Z,56.55
2023-04-19T22:26:30.591Z,56.46
2023-04-19T22:28:57.391Z,56.22
2023-04-19T22:31:24.141Z,56.95
2023-04-19T22:33:50.968Z,56.79
2023-04-19T22:36:18.023Z,56.81
2023-04-19T22:38:44.863Z,58.19
2023-04-19T22:41:11.592Z,58.07
2023-04-19T22:43:38.428Z,58.07
2023-04-19T22:46:05.978Z,58.16
2023-04-19T22:48:32.908Z,58.14
2023-04-19T22:51:00.779Z,59.09
2023-04-19T22:53:27.933Z,59.67
2023-04-19T22:55:54.630Z,60.18
2023-04-19T22:58:22.144Z,59.80
2023-04-19T23:00:50.045Z,60.47
2023-04-19T23:03:17.106Z,60.51
2023-04-19T23:05:44.453Z,61.63
2023-04-19T23:08:12.835Z,60.99
2023-04-19T23:10:42.393Z,61.73
2023-04-19T23:13:11.917Z,62.71
2023-04-19T23:15:39.279Z,63.60
2023-04-19T23:18:06.219Z,63.40
2023-04-19T23:20:33.283Z,64.53
2023-04-19T23:23:00.148Z,64.64
2023-04-19T23:25:27.043Z,65.19
2023-04-19T23:27:53.711Z,65.27
2023-04-19T23:30:20.764Z,66.35
2023-04-19T23:32:47.662Z,66.24
2023-04-19T23:35:14.502Z,67.14
2023-04-19T23:37:41.293Z,68.45
2023-04-19T23:40:09.249Z,68.50
2023-04-19T23:42:38.211Z,68.83
2023-04-19T23:45:06.580Z,69.97
2023-04-19T23:47:34.264Z,70.58
2023-04-19T23:50:01.045Z,70.98
2023-04-19T23:52:27.758Z,71.14
2023-04-19T23:54:54.510Z,71.08
2023-04-19T23:57:21.431Z,71.38
2023-04-19T23:59:48.134Z,72.60
